Time;durP1;ratioP1;P1;durP2;ratioP2;P2;SDS_P1;SDS_P2;PMS_P1;PMS_P2;Temp;Humidity;BMP_temperature;BMP_pressure;BME280_temperature;BME280_humidity;BME280_pressure;Samples;Min_cycle;Max_cycle;Signal;HPM_P1;HPM_P2
2024/01/14 00:05:00;;;;;;;5.13;1.00;;;2.30;1.00;;;;;;10398678;28;20207;-82
2024/01/14 00:10:22;;;;;;;0.77;0.77;;;2.30;1.00;;;;;;10395690;28;20275;-83
2024/01/14 00:15:46;;;;;;;1.00;0.70;;;2.30;1.00;;;;;;10426762;28;20203;-81
2024/01/14 00:21:08;;;;;;;0.50;0.50;;;2.30;1.00;;;;;;10437254;28;20429;-81
2024/01/14 00:26:30;;;;;;;2.00;0.93;;;2.30;99.90;;;;;;10436059;28;20222;-78
2024/01/14 00:31:51;;;;;;;1.90;0.80;;;2.20;99.90;;;;;;10384846;28;20231;-77
2024/01/14 00:37:12;;;;;;;1.03;0.67;;;2.20;28.00;;;;;;10394808;28;20204;-79
2024/01/14 00:42:34;;;;;;;1.57;0.63;;;2.20;99.90;;;;;;10397566;28;20281;-81
2024/01/14 00:47:55;;;;;;;1.63;0.63;;;2.10;99.90;;;;;;10442558;28;20275;-81
2024/01/14 00:53:17;;;;;;;1.87;0.87;;;2.20;99.90;;;;;;10443724;28;20230;-78
2024/01/14 00:58:38;;;;;;;2.40;0.77;;;2.10;1.00;;;;;;10444477;28;20401;-80
2024/01/14 01:03:59;;;;;;;2.63;0.87;;;2.20;99.90;;;;;;10402738;28;20433;-78
2024/01/14 01:09:21;;;;;;;4.33;1.10;;;2.10;1.00;;;;;;10402575;28;20399;-77
2024/01/14 01:14:44;;;;;;;2.03;0.73;;;2.20;36.40;;;;;;10426589;28;20275;-82
2024/01/14 01:20:08;;;;;;;4.23;1.07;;;2.10;99.90;;;;;;10429394;28;20270;-77
2024/01/14 01:25:29;;;;;;;2.67;1.27;;;2.10;1.00;;;;;;10443612;28;20243;-78
2024/01/14 01:30:50;;;;;;;2.37;1.17;;;2.10;99.90;;;;;;10412564;28;20234;-78
2024/01/14 01:36:12;;;;;;;2.63;0.93;;;2.10;1.00;;;;;;10402428;28;20196;-78
2024/01/14 01:41:33;;;;;;;1.93;0.90;;;2.20;99.90;;;;;;10400947;28;20204;-78
2024/01/14 01:46:56;;;;;;;0.80;0.60;;;2.20;1.00;;;;;;10431601;28;20282;-77
2024/01/14 01:52:18;;;;;;;1.63;0.80;;;2.10;1.00;;;;;;10441288;28;20303;-78
2024/01/14 01:57:40;;;;;;;2.30;1.00;;;2.10;1.00;;;;;;10441419;28;20231;-77
2024/01/14 02:03:02;;;;;;;2.43;0.80;;;2.20;1.00;;;;;;10439984;28;20232;-79
2024/01/14 02:08:24;;;;;;;2.60;0.80;;;2.10;99.90;;;;;;10442074;28;20188;-80
2024/01/14 02:13:47;;;;;;;1.80;0.97;;;2.20;99.90;;;;;;10441414;28;20228;-78
2024/01/14 02:19:08;;;;;;;4.07;0.90;;;2.20;99.90;;;;;;10440896;28;20188;-79
2024/01/14 02:24:33;;;;;;;3.23;0.90;;;2.20;68.80;;;;;;10441509;28;20383;-80
2024/01/14 02:29:56;;;;;;;2.90;1.03;;;2.10;99.90;;;;;;10416406;28;20488;-84
2024/01/14 02:35:17;;;;;;;1.53;0.90;;;2.10;99.90;;;;;;10385430;28;20197;-83
2024/01/14 02:40:39;;;;;;;2.30;0.90;;;2.10;99.90;;;;;;10398699;28;20204;-83
2024/01/14 02:46:00;;;;;;;1.67;0.80;;;2.10;99.90;;;;;;10423546;28;20196;-80
2024/01/14 02:51:22;;;;;;;4.10;0.90;;;2.00;1.00;;;;;;10439716;28;20298;-79
2024/01/14 02:56:43;;;;;;;2.20;0.80;;;2.10;1.00;;;;;;10425195;28;20197;-83
2024/01/14 03:02:04;;;;;;;3.17;0.87;;;2.00;1.00;;;;;;10398399;28;20524;-84
2024/01/14 03:07:26;;;;;;;2.70;0.83;;;2.00;1.00;;;;;;10397307;28;20211;-81
2024/01/14 03:12:49;;;;;;;1.47;0.60;;;2.00;1.00;;;;;;10405279;28;20259;-80
2024/01/14 03:18:12;;;;;;;1.07;0.57;;;2.00;99.90;;;;;;10439487;28;20211;-80
2024/01/14 03:23:33;;;;;;;0.83;0.57;;;2.00;1.00;;;;;;10438011;28;20241;-83
2024/01/14 03:28:54;;;;;;;3.43;0.90;;;2.00;1.00;;;;;;10408310;28;20197;-80
2024/01/14 03:34:16;;;;;;;1.40;0.60;;;1.90;1.00;;;;;;10397783;28;20249;-83
2024/01/14 03:39:37;;;;;;;2.30;0.60;;;1.90;35.40;;;;;;10396502;28;20239;-83
2024/01/14 03:44:58;;;;;;;2.47;0.60;;;1.90;62.20;;;;;;10397567;28;20514;-80
2024/01/14 03:50:19;;;;;;;1.07;0.60;;;2.00;11.30;;;;;;10438226;28;20212;-83
2024/01/14 03:55:42;;;;;;;1.40;0.60;;;1.90;25.70;;;;;;10403950;28;20209;-83
2024/01/14 04:01:04;;;;;;;1.33;0.70;;;1.90;58.40;;;;;;10395626;28;20231;-83
2024/01/14 04:06:25;;;;;;;0.40;0.40;;;1.90;99.90;;;;;;10399988;28;20389;-80
2024/01/14 04:11:46;;;;;;;1.07;0.50;;;1.90;99.90;;;;;;10396599;28;20223;-81
2024/01/14 04:17:07;;;;;;;2.40;0.60;;;2.00;1.00;;;;;;10395725;28;20196;-84
2024/01/14 04:22:28;;;;;;;1.43;0.57;;;2.00;1.00;;;;;;10395469;28;20200;-79
2024/01/14 04:27:50;;;;;;;1.73;0.87;;;2.00;99.90;;;;;;10398518;28;20243;-81
2024/01/14 04:33:11;;;;;;;1.03;0.50;;;2.00;1.00;;;;;;10409086;28;20232;-81
2024/01/14 04:38:32;;;;;;;0.93;0.60;;;2.00;1.00;;;;;;10395046;28;20204;-79
2024/01/14 04:43:54;;;;;;;2.07;1.00;;;2.00;1.00;;;;;;10401151;28;20426;-79
2024/01/14 04:49:15;;;;;;;3.90;1.10;;;2.00;14.70;;;;;;10435212;28;20199;-79
2024/01/14 04:54:36;;;;;;;2.20;0.80;;;2.00;99.90;;;;;;10435221;28;20227;-79
2024/01/14 04:59:58;;;;;;;3.83;1.30;;;2.10;1.00;;;;;;10393786;28;20237;-80
2024/01/14 05:05:20;;;;;;;3.40;1.10;;;2.10;1.00;;;;;;10394180;28;20272;-80
2024/01/14 05:10:42;;;;;;;9.80;1.93;;;2.10;1.00;;;;;;10434988;28;20224;-79
2024/01/14 05:16:03;;;;;;;6.17;1.83;;;2.20;99.90;;;;;;10436072;28;20500;-81
2024/01/14 05:21:25;;;;;;;7.33;1.90;;;2.20;99.90;;;;;;10435902;28;20491;-80
2024/01/14 05:26:47;;;;;;;6.97;1.90;;;2.20;1.00;;;;;;10421430;28;20201;-80
2024/01/14 05:32:14;;;;;;;7.93;2.20;;;2.20;1.00;;;;;;10401282;28;20231;-84
2024/01/14 05:37:35;;;;;;;7.13;1.87;;;2.30;1.00;;;;;;10401627;28;20219;-83
2024/01/14 05:42:56;;;;;;;9.10;2.43;;;2.20;99.90;;;;;;10401328;28;20193;-83
2024/01/14 05:48:19;;;;;;;12.00;2.60;;;2.30;1.00;;;;;;10401344;28;20201;-85
2024/01/14 05:53:42;;;;;;;12.43;2.50;;;2.30;99.90;;;;;;10401874;28;20224;-84
2024/01/14 05:59:03;;;;;;;12.90;3.20;;;2.40;1.00;;;;;;10405379;28;20435;-84
2024/01/14 06:04:24;;;;;;;11.63;2.63;;;2.40;99.90;;;;;;10400527;28;20193;-81
2024/01/14 06:09:46;;;;;;;14.17;2.80;;;2.40;63.00;;;;;;10401114;28;20219;-81
2024/01/14 06:15:07;;;;;;;12.70;2.97;;;2.40;97.00;;;;;;10426429;28;20228;-77
2024/01/14 06:20:28;;;;;;;12.50;2.40;;;2.40;99.90;;;;;;10441085;28;20510;-79
2024/01/14 06:25:50;;;;;;;10.97;1.73;;;2.50;1.00;;;;;;10433113;28;20204;-83
2024/01/14 06:31:11;;;;;;;8.17;2.00;;;2.50;1.00;;;;;;10449525;28;20218;-80
2024/01/14 06:36:32;;;;;;;10.57;1.90;;;2.40;1.00;;;;;;10440221;28;20215;-81
2024/01/14 06:41:54;;;;;;;8.93;2.47;;;2.50;1.00;;;;;;10440106;28;20184;-81
2024/01/14 06:47:15;;;;;;;14.77;2.90;;;2.50;1.00;;;;;;10406702;28;20402;-78
2024/01/14 06:52:37;;;;;;;15.40;2.73;;;2.50;1.00;;;;;;10384742;28;20303;-77
2024/01/14 06:57:59;;;;;;;10.67;2.67;;;2.50;1.00;;;;;;10402359;28;20207;-79
2024/01/14 07:03:21;;;;;;;16.17;3.50;;;2.50;1.00;;;;;;10397762;28;20201;-81
2024/01/14 07:08:43;;;;;;;9.80;2.73;;;2.60;1.00;;;;;;10397823;28;20197;-80
2024/01/14 07:14:04;;;;;;;12.53;3.30;;;2.50;1.00;;;;;;10429224;28;20239;-78
2024/01/14 07:19:25;;;;;;;8.63;2.67;;;2.50;99.90;;;;;;10454939;28;20243;-81
2024/01/14 07:24:47;;;;;;;15.13;3.73;;;2.60;99.90;;;;;;10437332;28;20361;-77
2024/01/14 07:30:08;;;;;;;9.60;3.17;;;2.60;99.90;;;;;;10410773;28;20192;-78
2024/01/14 07:35:30;;;;;;;9.63;2.80;;;2.60;99.90;;;;;;10398070;28;20200;-80
2024/01/14 07:40:51;;;;;;;12.53;3.00;;;2.50;1.00;;;;;;10397642;28;20195;-79
2024/01/14 07:46:12;;;;;;;9.93;2.07;;;2.50;79.90;;;;;;10421756;28;20375;-78
2024/01/14 07:51:33;;;;;;;14.63;3.03;;;2.60;1.00;;;;;;10437044;28;20458;-79
2024/01/14 07:56:54;;;;;;;8.40;2.20;;;2.60;1.00;;;;;;10422511;28;20247;-80
2024/01/14 08:02:16;;;;;;;14.13;3.27;;;2.60;13.70;;;;;;10396991;28;20593;-81
2024/01/14 08:07:37;;;;;;;9.77;3.07;;;2.70;1.00;;;;;;10396111;28;20185;-81
2024/01/14 08:12:58;;;;;;;10.17;2.33;;;2.60;99.90;;;;;;10403282;28;20420;-79
2024/01/14 08:18:19;;;;;;;7.97;2.40;;;2.70;1.00;;;;;;10395776;28;20486;-78
2024/01/14 08:23:41;;;;;;;14.20;3.17;;;2.70;1.00;;;;;;10396400;28;20496;-78
2024/01/14 08:29:02;;;;;;;19.00;4.13;;;2.70;1.00;;;;;;10417227;28;20241;-81
2024/01/14 08:34:26;;;;;;;19.77;4.13;;;2.70;1.00;;;;;;10435695;28;20234;-80
2024/01/14 08:39:48;;;;;;;17.87;4.30;;;2.70;1.00;;;;;;10435801;28;20188;-79
2024/01/14 08:45:11;;;;;;;12.57;2.30;;;2.70;99.90;;;;;;10436424;28;20499;-80
2024/01/14 08:50:33;;;;;;;21.90;6.50;;;2.80;1.00;;;;;;10436472;28;20201;-77
2024/01/14 08:55:56;;;;;;;13.27;2.80;;;3.00;1.00;;;;;;10416168;28;20288;-78
2024/01/14 09:01:17;;;;;;;19.63;5.83;;;3.10;99.90;;;;;;10395383;28;20279;-78
2024/01/14 09:06:40;;;;;;;33.80;11.10;;;3.10;1.00;;;;;;10402190;28;20251;-81
2024/01/14 09:12:01;;;;;;;17.30;5.40;;;3.20;99.90;;;;;;10389652;28;20225;-81
2024/01/14 09:17:22;;;;;;;19.33;6.00;;;3.30;1.00;;;;;;10441947;28;20428;-78
2024/01/14 09:22:43;;;;;;;11.70;2.67;;;3.40;1.00;;;;;;10428920;28;20483;-80
2024/01/14 09:28:05;;;;;;;8.27;1.63;;;3.50;99.90;;;;;;10432709;28;20231;-79
2024/01/14 09:33:26;;;;;;;8.53;2.10;;;3.50;1.00;;;;;;10402618;28;20224;-82
2024/01/14 09:38:47;;;;;;;9.43;1.80;;;3.50;99.90;;;;;;10401199;28;20534;-80
2024/01/14 09:44:13;;;;;;;6.70;1.67;;;3.60;66.60;;;;;;10409390;28;20204;-82
2024/01/14 09:49:36;;;;;;;9.37;2.43;;;3.50;1.00;;;;;;10440597;28;20228;-78
2024/01/14 09:54:57;;;;;;;8.27;2.27;;;3.50;99.90;;;;;;10397456;28;20224;-83
2024/01/14 10:00:23;;;;;;;9.80;1.93;;;3.60;1.00;;;;;;10400597;28;20260;-82
2024/01/14 10:05:45;;;;;;;8.10;1.70;;;3.50;1.00;;;;;;10400309;28;20393;-82
2024/01/14 10:11:06;;;;;;;7.90;1.87;;;3.40;1.00;;;;;;10399973;28;20194;-79
2024/01/14 10:16:28;;;;;;;10.03;2.40;;;3.40;1.00;;;;;;10404123;28;20213;-82
2024/01/14 10:21:52;;;;;;;8.30;1.77;;;3.50;56.80;;;;;;10399811;28;20201;-84
2024/01/14 10:27:16;;;;;;;11.70;2.13;;;3.40;34.80;;;;;;10386161;28;20201;-82
2024/01/14 10:32:37;;;;;;;7.73;1.87;;;3.40;1.00;;;;;;10400349;28;20218;-78
2024/01/14 10:37:58;;;;;;;10.43;1.93;;;3.40;99.90;;;;;;10398709;28;20200;-80
2024/01/14 10:43:24;;;;;;;10.83;2.23;;;3.40;48.60;;;;;;10404298;28;20217;-78
2024/01/14 10:48:49;;;;;;;8.50;1.53;;;3.40;99.90;;;;;;10440874;28;20363;-78
2024/01/14 10:54:23;;;;;;;8.53;2.43;;;3.30;99.90;;;;;;10411719;28;20232;-78
2024/01/14 10:59:45;;;;;;;5.87;1.67;;;3.30;1.00;;;;;;10440375;28;20228;-81
2024/01/14 11:05:07;;;;;;;9.43;2.00;;;3.30;99.90;;;;;;10439223;28;20234;-81
2024/01/14 11:10:29;;;;;;;6.63;1.50;;;3.30;27.90;;;;;;10438694;28;20196;-79
2024/01/14 11:16:08;;;;;;;7.47;1.57;;;3.40;75.00;;;;;;10438008;28;20410;-82
2024/01/14 11:22:08;;;;;;;9.83;1.83;;;3.40;1.00;;;;;;10401122;28;20197;-79
2024/01/14 11:27:30;;;;;;;7.00;2.03;;;3.40;7.00;;;;;;10404824;28;20210;-78
2024/01/14 11:33:29;;;;;;;13.77;2.43;;;3.30;99.90;;;;;;10426116;28;20220;-80
2024/01/14 11:38:51;;;;;;;7.80;2.00;;;3.30;99.90;;;;;;10438622;28;20189;-81
2024/01/14 11:44:29;;;;;;;10.00;2.30;;;3.30;99.90;;;;;;10430754;28;20395;-80
2024/01/14 11:49:51;;;;;;;7.80;2.13;;;3.40;95.50;;;;;;10399392;28;20504;-78
2024/01/14 11:55:14;;;;;;;17.17;3.13;;;3.40;1.00;;;;;;10396149;28;20232;-79
2024/01/14 12:00:37;;;;;;;11.03;2.03;;;3.30;55.00;;;;;;10396066;28;20255;-78
2024/01/14 12:06:03;;;;;;;9.03;3.20;;;3.20;99.90;;;;;;10395946;28;20398;-78
2024/01/14 12:11:25;;;;;;;11.37;3.13;;;3.10;99.90;;;;;;10396903;28;20217;-78
2024/01/14 12:16:47;;;;;;;10.03;2.87;;;3.00;1.00;;;;;;10412347;28;20216;-81
2024/01/14 12:22:09;;;;;;;10.80;3.40;;;3.00;1.00;;;;;;10407548;28;20203;-84
2024/01/14 12:27:30;;;;;;;15.20;4.00;;;3.00;1.00;;;;;;10437009;28;20271;-81
2024/01/14 12:32:53;;;;;;;17.33;4.63;;;3.00;1.00;;;;;;10421583;28;20215;-82
2024/01/14 12:38:15;;;;;;;11.27;3.37;;;2.90;1.00;;;;;;10435064;28;20199;-78
2024/01/14 12:43:36;;;;;;;11.27;2.53;;;2.90;1.00;;;;;;10429808;28;20207;-80
2024/01/14 12:49:09;;;;;;;8.90;2.80;;;2.90;1.00;;;;;;10435438;28;20488;-78
2024/01/14 12:54:32;;;;;;;9.30;2.47;;;2.90;1.00;;;;;;10436708;28;20226;-79
2024/01/14 12:59:54;;;;;;;8.53;2.47;;;2.90;1.00;;;;;;10436259;28;20590;-84
2024/01/14 13:05:15;;;;;;;13.67;3.37;;;2.80;1.00;;;;;;10421363;28;20394;-79
2024/01/14 13:10:37;;;;;;;9.77;2.50;;;2.70;1.00;;;;;;10435779;28;20246;-81
2024/01/14 13:15:58;;;;;;;10.17;2.80;;;2.70;1.00;;;;;;10401295;28;20229;-80
2024/01/14 13:21:20;;;;;;;11.27;3.43;;;2.80;1.00;;;;;;10400368;28;20195;-79
2024/01/14 13:26:42;;;;;;;13.07;3.17;;;2.70;1.00;;;;;;10436238;28;20199;-82
2024/01/14 13:32:04;;;;;;;12.97;3.67;;;2.80;1.00;;;;;;10394090;28;20216;-79
2024/01/14 13:37:25;;;;;;;9.00;2.77;;;2.80;99.90;;;;;;10394933;28;20296;-78
2024/01/14 13:42:46;;;;;;;10.10;3.40;;;2.70;1.00;;;;;;10383738;28;20201;-79
2024/01/14 13:48:08;;;;;;;9.13;3.07;;;2.60;1.00;;;;;;10424600;28;20275;-81
2024/01/14 13:53:29;;;;;;;8.70;4.00;;;2.60;1.00;;;;;;10427940;28;20251;-84
2024/01/14 13:58:50;;;;;;;15.00;4.00;;;2.60;99.90;;;;;;10441955;28;20224;-81
2024/01/14 14:04:11;;;;;;;11.37;3.43;;;2.50;99.90;;;;;;10441065;28;20207;-82
2024/01/14 14:09:34;;;;;;;9.03;3.03;;;2.40;1.00;;;;;;10441243;28;20188;-79
2024/01/14 14:14:56;;;;;;;10.97;3.73;;;2.40;53.20;;;;;;10429722;28;20400;-82
2024/01/14 14:20:19;;;;;;;11.27;3.83;;;2.40;1.00;;;;;;10419326;28;20203;-79
2024/01/14 14:25:40;;;;;;;15.23;3.40;;;2.40;1.00;;;;;;10418978;28;20648;-81
2024/01/14 14:31:03;;;;;;;15.83;4.60;;;2.30;1.00;;;;;;10426432;28;20197;-79
2024/01/14 14:36:24;;;;;;;10.20;3.47;;;2.40;64.30;;;;;;10400507;28;20200;-78
2024/01/14 14:41:49;;;;;;;13.23;3.63;;;2.30;90.00;;;;;;10399867;28;20245;-78
2024/01/14 14:47:10;;;;;;;9.83;3.07;;;2.40;1.00;;;;;;10432482;28;20210;-83
2024/01/14 14:52:31;;;;;;;8.20;2.90;;;2.40;1.00;;;;;;10440661;28;20222;-78
2024/01/14 14:57:52;;;;;;;12.47;2.77;;;2.40;99.90;;;;;;10440181;28;20184;-78
2024/01/14 15:03:14;;;;;;;7.53;2.77;;;2.40;15.20;;;;;;10406353;28;20242;-78
2024/01/14 15:08:35;;;;;;;14.93;4.40;;;2.30;99.90;;;;;;10397971;28;20217;-77
2024/01/14 15:13:56;;;;;;;17.83;6.17;;;2.40;1.00;;;;;;10402785;28;20230;-79
2024/01/14 15:19:18;;;;;;;13.80;5.00;;;2.30;1.00;;;;;;10439516;28;20189;-78
2024/01/14 15:24:39;;;;;;;10.70;2.90;;;2.30;1.00;;;;;;10437935;28;20200;-78
2024/01/14 15:30:00;;;;;;;37.37;9.00;;;2.40;99.90;;;;;;10414893;28;20263;-76
2024/01/14 15:35:21;;;;;;;32.77;7.60;;;2.30;1.00;;;;;;10397344;28;20236;-78
2024/01/14 15:40:43;;;;;;;11.77;2.80;;;2.40;99.90;;;;;;10396844;28;20484;-77
2024/01/14 15:46:05;;;;;;;9.80;2.90;;;2.40;99.90;;;;;;10421638;28;20208;-80
2024/01/14 15:51:26;;;;;;;8.90;2.50;;;2.40;99.90;;;;;;10409549;28;20407;-78
2024/01/14 15:56:47;;;;;;;20.93;5.70;;;2.40;1.00;;;;;;10409235;28;20200;-79
2024/01/14 16:02:09;;;;;;;12.33;3.37;;;2.40;99.90;;;;;;10437163;28;20549;-78
2024/01/14 16:07:32;;;;;;;14.50;3.67;;;2.40;1.00;;;;;;10450614;28;20545;-79
2024/01/14 16:12:53;;;;;;;9.90;3.10;;;2.40;99.90;;;;;;10436188;28;20461;-77
2024/01/14 16:18:15;;;;;;;8.90;3.33;;;2.40;94.60;;;;;;10437248;28;20243;-76
2024/01/14 16:23:37;;;;;;;9.70;2.70;;;2.40;1.00;;;;;;10437296;28;20196;-77
2024/01/14 16:28:58;;;;;;;7.57;2.63;;;2.40;1.00;;;;;;10411196;28;20205;-76
2024/01/14 16:34:20;;;;;;;9.30;2.77;;;2.30;99.90;;;;;;10397524;28;20300;-76
2024/01/14 16:39:41;;;;;;;9.03;2.00;;;2.30;1.00;;;;;;10395456;28;20212;-76
2024/01/14 16:45:02;;;;;;;13.83;3.83;;;2.30;1.00;;;;;;10411218;28;20487;-76
2024/01/14 16:50:23;;;;;;;9.93;2.60;;;2.30;1.00;;;;;;10421670;28;20203;-77
2024/01/14 16:55:49;;;;;;;12.70;3.80;;;2.30;99.90;;;;;;10434761;28;20212;-77
2024/01/14 17:01:11;;;;;;;10.67;4.07;;;2.30;1.00;;;;;;10395376;28;20224;-77
2024/01/14 17:06:32;;;;;;;9.20;2.67;;;2.20;1.00;;;;;;10393995;28;20459;-77
2024/01/14 17:11:53;;;;;;;31.00;12.53;;;2.20;99.90;;;;;;10393890;28;20239;-76
2024/01/14 17:17:15;;;;;;;29.43;13.00;;;2.20;1.00;;;;;;10439692;28;20204;-77
2024/01/14 17:22:38;;;;;;;27.07;11.10;;;2.20;99.90;;;;;;10431647;28;20193;-77
2024/01/14 17:28:00;;;;;;;18.97;7.63;;;2.20;99.90;;;;;;10420368;28;20205;-78
2024/01/14 17:33:21;;;;;;;14.47;4.70;;;2.20;99.90;;;;;;10409884;28;20229;-76
2024/01/14 17:38:44;;;;;;;18.10;6.33;;;2.20;1.00;;;;;;10434667;28;20250;-76
2024/01/14 17:44:06;;;;;;;24.87;10.23;;;2.20;99.90;;;;;;10428436;28;20242;-76
2024/01/14 17:49:27;;;;;;;17.77;7.70;;;2.20;99.90;;;;;;10443031;28;20239;-80
2024/01/14 17:54:48;;;;;;;36.13;12.63;;;2.20;99.90;;;;;;10436365;28;20251;-78
2024/01/14 18:00:11;;;;;;;24.67;10.03;;;2.20;1.00;;;;;;10400215;28;20247;-76
2024/01/14 18:05:32;;;;;;;12.53;5.40;;;2.10;1.00;;;;;;10400323;28;20278;-79
2024/01/14 18:10:54;;;;;;;12.67;4.27;;;2.20;1.00;;;;;;10400038;28;20492;-79
2024/01/14 18:16:16;;;;;;;7.90;3.20;;;2.10;1.00;;;;;;10414691;28;20237;-78
2024/01/14 18:21:38;;;;;;;5.90;2.93;;;2.10;99.90;;;;;;10454691;28;20486;-79
2024/01/14 18:26:59;;;;;;;7.40;3.20;;;2.10;99.90;;;;;;10404475;28;20199;-80
2024/01/14 18:32:20;;;;;;;12.27;3.37;;;2.10;1.00;;;;;;10435424;28;20537;-79
2024/01/14 18:37:42;;;;;;;9.50;3.47;;;2.10;99.90;;;;;;10424726;28;20207;-78
2024/01/14 18:43:04;;;;;;;6.60;3.00;;;2.10;1.00;;;;;;10426223;28;20247;-77
2024/01/14 18:48:27;;;;;;;8.83;2.80;;;2.10;99.90;;;;;;10399758;28;20189;-78
2024/01/14 18:53:48;;;;;;;9.03;3.10;;;2.20;99.90;;;;;;10370940;28;20243;-78
2024/01/14 18:59:10;;;;;;;5.03;2.50;;;2.10;1.00;;;;;;10410373;28;20237;-77
2024/01/14 19:04:31;;;;;;;6.00;2.77;;;2.20;42.50;;;;;;10398098;28;20396;-79
2024/01/14 19:09:52;;;;;;;5.67;3.47;;;2.20;1.00;;;;;;10397924;28;20238;-79
2024/01/14 19:15:14;;;;;;;4.93;2.53;;;2.20;1.00;;;;;;10370272;28;20240;-79
2024/01/14 19:20:36;;;;;;;6.50;2.70;;;2.20;1.00;;;;;;10383604;28;20193;-78
2024/01/14 19:25:57;;;;;;;7.40;2.13;;;2.10;1.00;;;;;;10416768;28;20210;-79
2024/01/14 19:31:19;;;;;;;8.53;2.47;;;2.10;99.90;;;;;;10422004;28;20204;-77
2024/01/14 19:36:40;;;;;;;6.73;2.90;;;2.10;99.90;;;;;;10440314;28;20402;-76
2024/01/14 19:42:01;;;;;;;6.87;3.30;;;2.20;1.00;;;;;;10437835;28;20195;-78
2024/01/14 19:47:22;;;;;;;8.00;3.23;;;2.20;30.70;;;;;;10438111;28;20255;-77
2024/01/14 19:52:45;;;;;;;4.53;2.53;;;2.20;99.90;;;;;;10437642;28;20220;-81
2024/01/14 19:58:07;;;;;;;5.00;2.67;;;2.20;1.00;;;;;;10435850;28;20228;-77
2024/01/14 20:03:30;;;;;;;2.70;2.20;;;2.30;99.90;;;;;;10450792;28;20517;-79
2024/01/14 20:08:52;;;;;;;6.73;3.10;;;2.20;99.90;;;;;;10436668;28;20200;-78
2024/01/14 20:14:13;;;;;;;5.33;3.30;;;2.20;1.00;;;;;;10436488;28;20237;-78
2024/01/14 20:19:34;;;;;;;8.87;4.57;;;2.20;1.00;;;;;;10437147;28;20551;-78
2024/01/14 20:24:58;;;;;;;8.70;3.17;;;2.10;1.00;;;;;;10436980;28;20195;-79
2024/01/14 20:30:22;;;;;;;8.97;3.47;;;2.10;1.00;;;;;;10427267;28;20204;-79
2024/01/14 20:35:43;;;;;;;9.47;3.57;;;2.20;99.90;;;;;;10396053;28;20290;-78
2024/01/14 20:41:05;;;;;;;7.83;2.90;;;2.00;1.00;;;;;;10430636;28;20188;-78
2024/01/14 20:46:28;;;;;;;9.77;4.07;;;2.00;99.90;;;;;;10427750;28;20436;-78
2024/01/14 20:51:50;;;;;;;4.77;2.80;;;2.00;99.90;;;;;;10394452;28;20200;-78
2024/01/14 20:57:12;;;;;;;5.10;2.07;;;2.00;1.00;;;;;;10422327;28;20235;-79
2024/01/14 21:02:36;;;;;;;3.03;2.00;;;2.00;1.00;;;;;;10406430;28;20259;-77
2024/01/14 21:08:00;;;;;;;12.80;3.73;;;2.10;1.00;;;;;;10443837;28;20200;-76
2024/01/14 21:13:24;;;;;;;6.47;3.47;;;2.10;99.90;;;;;;10443576;28;20221;-80
2024/01/14 21:18:46;;;;;;;6.27;2.67;;;2.10;1.00;;;;;;10443260;28;20219;-79
2024/01/14 21:24:08;;;;;;;5.77;3.10;;;2.10;1.00;;;;;;10442893;28;20270;-79
2024/01/14 21:29:29;;;;;;;11.13;3.87;;;2.10;99.90;;;;;;10438635;28;20250;-79
2024/01/14 21:34:51;;;;;;;9.40;4.47;;;2.00;99.90;;;;;;10420096;28;20430;-79
2024/01/14 21:40:12;;;;;;;8.87;4.70;;;2.10;1.00;;;;;;10427563;28;20488;-80
2024/01/14 21:45:33;;;;;;;12.77;5.60;;;2.10;99.90;;;;;;10442682;28;20196;-83
2024/01/14 21:50:55;;;;;;;9.63;2.80;;;2.10;1.00;;;;;;10402238;28;20189;-78
2024/01/14 21:56:17;;;;;;;6.77;3.13;;;2.10;99.90;;;;;;10414513;28;20287;-79
2024/01/14 22:01:38;;;;;;;5.37;2.77;;;2.10;1.00;;;;;;10430406;28;20229;-81
2024/01/14 22:06:59;;;;;;;6.60;2.80;;;2.10;1.00;;;;;;10414538;28;20267;-79
2024/01/14 22:12:21;;;;;;;5.33;3.17;;;2.10;1.00;;;;;;10413671;28;20224;-79
2024/01/14 22:17:43;;;;;;;7.63;2.90;;;2.10;1.00;;;;;;10419521;28;20455;-78
2024/01/14 22:23:06;;;;;;;6.87;3.27;;;2.10;1.00;;;;;;10440482;28;20203;-80
2024/01/14 22:28:28;;;;;;;5.80;3.10;;;2.00;1.00;;;;;;10439188;28;20262;-79
2024/01/14 22:33:52;;;;;;;10.93;5.70;;;2.10;1.00;;;;;;10399382;28;20232;-80
2024/01/14 22:39:13;;;;;;;7.60;3.90;;;2.10;1.00;;;;;;10399249;28;20208;-80
2024/01/14 22:44:34;;;;;;;7.03;2.83;;;2.10;1.00;;;;;;10410659;28;20196;-79
2024/01/14 22:49:55;;;;;;;4.83;2.53;;;2.20;1.00;;;;;;10439653;28;20192;-78
2024/01/14 22:55:17;;;;;;;6.60;2.60;;;2.10;1.00;;;;;;10440389;28;20219;-79
2024/01/14 23:00:38;;;;;;;6.50;2.73;;;2.10;34.80;;;;;;10437923;28;20461;-78
2024/01/14 23:05:59;;;;;;;3.97;2.10;;;2.10;1.00;;;;;;10437786;28;20207;-78
2024/01/14 23:11:21;;;;;;;6.60;3.03;;;2.10;99.90;;;;;;10439546;28;20272;-78
2024/01/14 23:16:42;;;;;;;7.63;2.80;;;2.10;1.00;;;;;;10438517;28;20232;-78
2024/01/14 23:22:03;;;;;;;4.80;2.30;;;2.00;1.00;;;;;;10438846;28;20194;-78
2024/01/14 23:27:25;;;;;;;8.20;2.77;;;2.00;99.90;;;;;;10424208;28;20275;-79
2024/01/14 23:32:46;;;;;;;7.70;3.13;;;2.00;99.90;;;;;;10405740;28;20208;-80
2024/01/14 23:38:07;;;;;;;3.30;2.13;;;2.00;1.00;;;;;;10396880;28;20197;-80
2024/01/14 23:43:29;;;;;;;7.23;2.70;;;2.00;1.00;;;;;;10399265;28;20230;-78
2024/01/14 23:48:54;;;;;;;6.03;2.43;;;2.00;99.90;;;;;;10437651;28;20215;-78
2024/01/14 23:54:17;;;;;;;5.23;2.60;;;1.90;99.90;;;;;;10423444;28;20236;-79
2024/01/14 23:59:38;;;;;;;5.33;2.87;;;1.90;1.00;;;;;;10395624;28;20236;-78
